sensor_id;sensor_type;location;lat;lon;timestamp;temperature;humidity
2407;DHT22;37709;53.480;9.688;2022-10-10T00:01:35;6.20;99.90
2407;DHT22;37709;53.480;9.688;2022-10-10T00:04:04;6.20;99.90
2407;DHT22;37709;53.480;9.688;2022-10-10T00:06:32;6.30;99.90
2407;DHT22;37709;53.480;9.688;2022-10-10T00:09:00;6.40;99.90
2407;DHT22;37709;53.480;9.688;2022-10-10T00:11:28;6.40;99.90
2407;DHT22;37709;53.480;9.688;2022-10-10T00:13:55;6.50;99.90
2407;DHT22;37709;53.480;9.688;2022-10-10T00:16:23;6.50;99.90
2407;DHT22;37709;53.480;9.688;2022-10-10T00:18:51;6.50;99.90
2407;DHT22;37709;53.480;9.688;2022-10-10T00:21:19;6.50;99.90
2407;DHT22;37709;53.480;9.688;2022-10-10T00:23:46;6.50;99.90
2407;DHT22;37709;53.480;9.688;2022-10-10T00:26:15;6.50;99.90
2407;DHT22;37709;53.480;9.688;2022-10-10T00:28:46;6.60;99.90
2407;DHT22;37709;53.480;9.688;2022-10-10T00:31:15;6.60;99.90
2407;DHT22;37709;53.480;9.688;2022-10-10T00:33:42;6.60;99.90
2407;DHT22;37709;53.480;9.688;2022-10-10T00:36:13;6.60;99.90
2407;DHT22;37709;53.480;9.688;2022-10-10T00:38:40;6.50;99.90
2407;DHT22;37709;53.480;9.688;2022-10-10T00:41:08;6.40;99.90
2407;DHT22;37709;53.480;9.688;2022-10-10T00:43:36;6.40;99.90
2407;DHT22;37709;53.480;9.688;2022-10-10T00:46:03;6.40;99.90
2407;DHT22;37709;53.480;9.688;2022-10-10T00:51:08;6.30;99.90
2407;DHT22;37709;53.480;9.688;2022-10-10T00:53:49;6.30;99.90
2407;DHT22;37709;53.480;9.688;2022-10-10T00:56:21;6.40;99.90
2407;DHT22;37709;53.480;9.688;2022-10-10T00:58:53;6.30;99.90
2407;DHT22;37709;53.480;9.688;2022-10-10T01:01:22;6.30;99.90
2407;DHT22;37709;53.480;9.688;2022-10-10T01:03:50;6.40;99.90
2407;DHT22;37709;53.480;9.688;2022-10-10T01:06:19;6.40;99.90
2407;DHT22;37709;53.480;9.688;2022-10-10T01:08:47;6.40;99.90
2407;DHT22;37709;53.480;9.688;2022-10-10T01:14:25;6.30;99.90
2407;DHT22;37709;53.480;9.688;2022-10-10T01:17:03;6.40;99.90
2407;DHT22;37709;53.480;9.688;2022-10-10T01:25:32;6.20;99.90
2407;DHT22;37709;53.480;9.688;2022-10-10T01:31:05;6.20;99.90
2407;DHT22;37709;53.480;9.688;2022-10-10T01:34:02;6.10;99.90
2407;DHT22;37709;53.480;9.688;2022-10-10T01:36:32;6.10;99.90
2407;DHT22;37709;53.480;9.688;2022-10-10T01:39:14;6.00;99.90
2407;DHT22;37709;53.480;9.688;2022-10-10T01:41:58;6.00;99.90
2407;DHT22;37709;53.480;9.688;2022-10-10T01:44:29;6.00;99.90
2407;DHT22;37709;53.480;9.688;2022-10-10T01:46:57;5.90;99.90
2407;DHT22;37709;53.480;9.688;2022-10-10T01:49:29;5.90;99.90
2407;DHT22;37709;53.480;9.688;2022-10-10T01:54:50;5.90;99.90
2407;DHT22;37709;53.480;9.688;2022-10-10T01:57:30;5.80;99.90
2407;DHT22;37709;53.480;9.688;2022-10-10T02:05:45;5.90;99.90
2407;DHT22;37709;53.480;9.688;2022-10-10T02:08:27;5.90;99.90
2407;DHT22;37709;53.480;9.688;2022-10-10T02:11:04;5.90;99.90
2407;DHT22;37709;53.480;9.688;2022-10-10T02:13:46;5.90;99.90
2407;DHT22;37709;53.480;9.688;2022-10-10T02:16:19;5.90;99.90
2407;DHT22;37709;53.480;9.688;2022-10-10T02:18:50;5.90;99.90
2407;DHT22;37709;53.480;9.688;2022-10-10T02:21:19;6.00;99.90
2407;DHT22;37709;53.480;9.688;2022-10-10T02:23:49;5.90;99.90
2407;DHT22;37709;53.480;9.688;2022-10-10T02:26:20;6.00;99.90
2407;DHT22;37709;53.480;9.688;2022-10-10T02:28:57;6.00;99.90
2407;DHT22;37709;53.480;9.688;2022-10-10T02:31:41;6.00;99.90
2407;DHT22;37709;53.480;9.688;2022-10-10T02:34:18;6.00;99.90
2407;DHT22;37709;53.480;9.688;2022-10-10T02:36:51;6.10;99.90
2407;DHT22;37709;53.480;9.688;2022-10-10T02:39:22;6.20;99.90
2407;DHT22;37709;53.480;9.688;2022-10-10T02:41:52;6.10;99.90
2407;DHT22;37709;53.480;9.688;2022-10-10T02:44:20;6.20;99.90
2407;DHT22;37709;53.480;9.688;2022-10-10T02:46:48;6.20;99.90
2407;DHT22;37709;53.480;9.688;2022-10-10T02:49:26;6.10;99.90
2407;DHT22;37709;53.480;9.688;2022-10-10T02:51:54;6.20;99.90
2407;DHT22;37709;53.480;9.688;2022-10-10T02:54:22;6.30;99.90
2407;DHT22;37709;53.480;9.688;2022-10-10T02:56:52;6.30;99.90
2407;DHT22;37709;53.480;9.688;2022-10-10T02:59:20;6.30;99.90
2407;DHT22;37709;53.480;9.688;2022-10-10T03:02:12;6.30;99.90
2407;DHT22;37709;53.480;9.688;2022-10-10T03:04:39;6.30;99.90
2407;DHT22;37709;53.480;9.688;2022-10-10T03:07:08;6.30;99.90
2407;DHT22;37709;53.480;9.688;2022-10-10T03:09:35;6.30;99.90
2407;DHT22;37709;53.480;9.688;2022-10-10T03:12:03;6.10;99.90
2407;DHT22;37709;53.480;9.688;2022-10-10T03:14:31;6.10;99.90
2407;DHT22;37709;53.480;9.688;2022-10-10T03:16:59;6.10;99.90
2407;DHT22;37709;53.480;9.688;2022-10-10T03:19:26;6.00;99.90
2407;DHT22;37709;53.480;9.688;2022-10-10T03:21:54;6.00;99.90
2407;DHT22;37709;53.480;9.688;2022-10-10T03:24:21;6.00;99.90
2407;DHT22;37709;53.480;9.688;2022-10-10T03:26:49;6.00;99.90
2407;DHT22;37709;53.480;9.688;2022-10-10T03:29:16;6.00;99.90
2407;DHT22;37709;53.480;9.688;2022-10-10T03:31:44;5.90;99.90
2407;DHT22;37709;53.480;9.688;2022-10-10T03:34:11;5.90;99.90
2407;DHT22;37709;53.480;9.688;2022-10-10T03:36:39;5.90;99.90
2407;DHT22;37709;53.480;9.688;2022-10-10T03:39:06;5.90;99.90
2407;DHT22;37709;53.480;9.688;2022-10-10T03:41:36;5.80;99.90
2407;DHT22;37709;53.480;9.688;2022-10-10T03:44:03;5.70;99.90
2407;DHT22;37709;53.480;9.688;2022-10-10T03:46:30;5.70;99.90
2407;DHT22;37709;53.480;9.688;2022-10-10T03:48:58;5.60;99.90
2407;DHT22;37709;53.480;9.688;2022-10-10T03:51:25;5.60;99.90
2407;DHT22;37709;53.480;9.688;2022-10-10T03:53:53;5.60;99.90
2407;DHT22;37709;53.480;9.688;2022-10-10T03:56:21;5.60;99.90
2407;DHT22;37709;53.480;9.688;2022-10-10T03:58:49;5.60;99.90
2407;DHT22;37709;53.480;9.688;2022-10-10T04:01:17;5.60;99.90
2407;DHT22;37709;53.480;9.688;2022-10-10T04:03:44;5.60;99.90
2407;DHT22;37709;53.480;9.688;2022-10-10T04:06:18;5.60;99.90
2407;DHT22;37709;53.480;9.688;2022-10-10T04:08:46;5.60;99.90
2407;DHT22;37709;53.480;9.688;2022-10-10T04:11:14;5.50;99.90
2407;DHT22;37709;53.480;9.688;2022-10-10T04:13:42;5.50;99.90
2407;DHT22;37709;53.480;9.688;2022-10-10T04:16:09;5.50;99.90
2407;DHT22;37709;53.480;9.688;2022-10-10T04:18:37;5.50;99.90
2407;DHT22;37709;53.480;9.688;2022-10-10T04:21:04;5.50;99.90
2407;DHT22;37709;53.480;9.688;2022-10-10T04:23:32;5.50;99.90
2407;DHT22;37709;53.480;9.688;2022-10-10T04:26:00;5.50;99.90
2407;DHT22;37709;53.480;9.688;2022-10-10T04:28:27;5.50;99.90
2407;DHT22;37709;53.480;9.688;2022-10-10T04:30:55;5.50;99.90
2407;DHT22;37709;53.480;9.688;2022-10-10T04:33:23;5.60;99.90
2407;DHT22;37709;53.480;9.688;2022-10-10T04:35:51;5.50;99.90
2407;DHT22;37709;53.480;9.688;2022-10-10T04:38:19;5.40;99.90
2407;DHT22;37709;53.480;9.688;2022-10-10T04:41:12;5.30;99.90
2407;DHT22;37709;53.480;9.688;2022-10-10T04:43:39;5.30;99.90
2407;DHT22;37709;53.480;9.688;2022-10-10T04:46:07;5.20;99.90
2407;DHT22;37709;53.480;9.688;2022-10-10T04:48:36;5.20;99.90
2407;DHT22;37709;53.480;9.688;2022-10-10T04:51:03;5.20;99.90
2407;DHT22;37709;53.480;9.688;2022-10-10T04:53:31;5.30;99.90
2407;DHT22;37709;53.480;9.688;2022-10-10T04:55:58;5.30;99.90
2407;DHT22;37709;53.480;9.688;2022-10-10T04:58:25;5.30;99.90
2407;DHT22;37709;53.480;9.688;2022-10-10T05:00:54;5.30;99.90
2407;DHT22;37709;53.480;9.688;2022-10-10T05:03:22;5.30;99.90
2407;DHT22;37709;53.480;9.688;2022-10-10T05:05:51;5.30;99.90
2407;DHT22;37709;53.480;9.688;2022-10-10T05:08:18;5.30;99.90
2407;DHT22;37709;53.480;9.688;2022-10-10T05:10:47;5.30;99.90
2407;DHT22;37709;53.480;9.688;2022-10-10T05:13:15;5.30;99.90
2407;DHT22;37709;53.480;9.688;2022-10-10T05:15:42;5.20;99.90
2407;DHT22;37709;53.480;9.688;2022-10-10T05:18:12;5.20;99.90
2407;DHT22;37709;53.480;9.688;2022-10-10T05:20:39;5.30;99.90
2407;DHT22;37709;53.480;9.688;2022-10-10T05:23:06;5.30;99.90
2407;DHT22;37709;53.480;9.688;2022-10-10T05:25:34;5.30;99.90
2407;DHT22;37709;53.480;9.688;2022-10-10T05:28:02;5.30;99.90
2407;DHT22;37709;53.480;9.688;2022-10-10T05:30:29;5.20;99.90
2407;DHT22;37709;53.480;9.688;2022-10-10T05:32:56;5.20;99.90
2407;DHT22;37709;53.480;9.688;2022-10-10T05:35:25;5.20;99.90
2407;DHT22;37709;53.480;9.688;2022-10-10T05:37:57;5.30;99.90
2407;DHT22;37709;53.480;9.688;2022-10-10T05:40:28;5.40;99.90
2407;DHT22;37709;53.480;9.688;2022-10-10T05:42:56;5.40;99.90
2407;DHT22;37709;53.480;9.688;2022-10-10T05:45:24;5.40;99.90
2407;DHT22;37709;53.480;9.688;2022-10-10T05:47:52;5.40;99.90
2407;DHT22;37709;53.480;9.688;2022-10-10T05:50:44;5.50;99.90
2407;DHT22;37709;53.480;9.688;2022-10-10T05:53:11;5.50;99.90
2407;DHT22;37709;53.480;9.688;2022-10-10T05:55:39;5.40;99.90
2407;DHT22;37709;53.480;9.688;2022-10-10T05:58:06;5.40;99.90
2407;DHT22;37709;53.480;9.688;2022-10-10T06:00:34;5.50;99.90
2407;DHT22;37709;53.480;9.688;2022-10-10T06:03:02;5.50;99.90
2407;DHT22;37709;53.480;9.688;2022-10-10T06:05:30;5.60;99.90
2407;DHT22;37709;53.480;9.688;2022-10-10T06:07:58;5.70;99.90
2407;DHT22;37709;53.480;9.688;2022-10-10T06:10:41;5.70;99.90
2407;DHT22;37709;53.480;9.688;2022-10-10T06:13:11;5.80;99.90
2407;DHT22;37709;53.480;9.688;2022-10-10T06:15:39;5.80;99.90
2407;DHT22;37709;53.480;9.688;2022-10-10T06:18:08;6.00;99.90
2407;DHT22;37709;53.480;9.688;2022-10-10T06:20:38;6.10;99.90
2407;DHT22;37709;53.480;9.688;2022-10-10T06:23:07;6.20;99.90
2407;DHT22;37709;53.480;9.688;2022-10-10T06:25:36;6.30;99.90
2407;DHT22;37709;53.480;9.688;2022-10-10T06:28:09;6.30;99.90
2407;DHT22;37709;53.480;9.688;2022-10-10T06:30:42;6.40;99.90
2407;DHT22;37709;53.480;9.688;2022-10-10T06:33:11;6.50;99.90
2407;DHT22;37709;53.480;9.688;2022-10-10T06:35:42;6.80;99.90
2407;DHT22;37709;53.480;9.688;2022-10-10T06:38:11;7.60;99.90
2407;DHT22;37709;53.480;9.688;2022-10-10T06:40:39;8.60;99.90
2407;DHT22;37709;53.480;9.688;2022-10-10T06:43:12;9.20;99.90
2407;DHT22;37709;53.480;9.688;2022-10-10T06:45:43;9.80;99.90
2407;DHT22;37709;53.480;9.688;2022-10-10T06:48:12;10.10;99.90
2407;DHT22;37709;53.480;9.688;2022-10-10T06:50:40;10.40;99.90
2407;DHT22;37709;53.480;9.688;2022-10-10T06:53:08;10.80;99.90
2407;DHT22;37709;53.480;9.688;2022-10-10T06:55:35;11.20;99.90
2407;DHT22;37709;53.480;9.688;2022-10-10T06:58:03;11.50;99.90
2407;DHT22;37709;53.480;9.688;2022-10-10T07:00:32;11.80;99.90
2407;DHT22;37709;53.480;9.688;2022-10-10T07:03:00;12.00;99.90
2407;DHT22;37709;53.480;9.688;2022-10-10T07:05:27;12.20;99.90
2407;DHT22;37709;53.480;9.688;2022-10-10T07:07:55;12.60;99.90
2407;DHT22;37709;53.480;9.688;2022-10-10T07:10:23;12.70;99.90
2407;DHT22;37709;53.480;9.688;2022-10-10T07:12:50;13.00;99.90
2407;DHT22;37709;53.480;9.688;2022-10-10T07:15:18;13.30;99.90
2407;DHT22;37709;53.480;9.688;2022-10-10T07:17:45;13.60;99.90
2407;DHT22;37709;53.480;9.688;2022-10-10T07:20:23;13.70;99.90
2407;DHT22;37709;53.480;9.688;2022-10-10T07:22:53;13.80;99.90
2407;DHT22;37709;53.480;9.688;2022-10-10T07:25:21;14.10;99.90
2407;DHT22;37709;53.480;9.688;2022-10-10T07:27:48;14.30;99.90
2407;DHT22;37709;53.480;9.688;2022-10-10T07:30:16;14.50;99.90
2407;DHT22;37709;53.480;9.688;2022-10-10T07:32:44;14.80;99.90
2407;DHT22;37709;53.480;9.688;2022-10-10T07:35:37;15.20;99.90
2407;DHT22;37709;53.480;9.688;2022-10-10T07:38:05;15.50;99.60
2407;DHT22;37709;53.480;9.688;2022-10-10T07:40:32;15.50;98.80
2407;DHT22;37709;53.480;9.688;2022-10-10T07:42:59;16.00;99.90
2407;DHT22;37709;53.480;9.688;2022-10-10T07:45:27;16.40;97.90
2407;DHT22;37709;53.480;9.688;2022-10-10T07:47:56;16.60;97.80
2407;DHT22;37709;53.480;9.688;2022-10-10T07:50:26;16.80;96.40
2407;DHT22;37709;53.480;9.688;2022-10-10T07:52:53;17.40;95.60
2407;DHT22;37709;53.480;9.688;2022-10-10T07:55:21;17.40;94.90
2407;DHT22;37709;53.480;9.688;2022-10-10T07:57:48;17.70;94.30
2407;DHT22;37709;53.480;9.688;2022-10-10T08:00:20;18.00;93.70
2407;DHT22;37709;53.480;9.688;2022-10-10T08:02:47;18.20;93.30
2407;DHT22;37709;53.480;9.688;2022-10-10T08:05:15;18.60;92.50
2407;DHT22;37709;53.480;9.688;2022-10-10T08:07:46;18.70;92.10
2407;DHT22;37709;53.480;9.688;2022-10-10T08:10:13;19.10;92.10
2407;DHT22;37709;53.480;9.688;2022-10-10T08:12:41;19.40;91.40
2407;DHT22;37709;53.480;9.688;2022-10-10T08:15:11;19.50;90.60
2407;DHT22;37709;53.480;9.688;2022-10-10T08:17:40;20.20;90.70
2407;DHT22;37709;53.480;9.688;2022-10-10T08:20:07;20.70;88.40
2407;DHT22;37709;53.480;9.688;2022-10-10T08:22:35;20.60;86.80
2407;DHT22;37709;53.480;9.688;2022-10-10T08:25:02;20.60;86.20
2407;DHT22;37709;53.480;9.688;2022-10-10T08:27:30;20.60;85.70
2407;DHT22;37709;53.480;9.688;2022-10-10T08:29:58;21.10;84.90
2407;DHT22;37709;53.480;9.688;2022-10-10T08:32:25;21.30;84.10
2407;DHT22;37709;53.480;9.688;2022-10-10T08:34:55;22.30;83.50
2407;DHT22;37709;53.480;9.688;2022-10-10T08:37:24;22.60;79.80
2407;DHT22;37709;53.480;9.688;2022-10-10T08:39:58;22.40;78.50
2407;DHT22;37709;53.480;9.688;2022-10-10T08:42:37;22.50;79.80
2407;DHT22;37709;53.480;9.688;2022-10-10T08:45:20;23.00;77.60
2407;DHT22;37709;53.480;9.688;2022-10-10T08:48:00;23.90;76.30
2407;DHT22;37709;53.480;9.688;2022-10-10T08:50:43;24.60;76.50
2407;DHT22;37709;53.480;9.688;2022-10-10T08:53:31;24.70;73.50
2407;DHT22;37709;53.480;9.688;2022-10-10T08:56:04;24.50;72.20
2407;DHT22;37709;53.480;9.688;2022-10-10T08:58:36;25.00;71.70
2407;DHT22;37709;53.480;9.688;2022-10-10T09:01:19;24.60;70.80
2407;DHT22;37709;53.480;9.688;2022-10-10T09:03:56;24.10;71.70
2407;DHT22;37709;53.480;9.688;2022-10-10T09:06:54;24.60;71.20
2407;DHT22;37709;53.480;9.688;2022-10-10T09:09:48;25.20;72.10
2407;DHT22;37709;53.480;9.688;2022-10-10T09:12:47;25.00;69.00
2407;DHT22;37709;53.480;9.688;2022-10-10T09:15:59;25.10;69.60
2407;DHT22;37709;53.480;9.688;2022-10-10T09:19:03;26.80;68.70
2407;DHT22;37709;53.480;9.688;2022-10-10T09:21:35;28.00;63.00
2407;DHT22;37709;53.480;9.688;2022-10-10T09:24:25;28.40;62.40
2407;DHT22;37709;53.480;9.688;2022-10-10T09:27:15;28.60;60.20
2407;DHT22;37709;53.480;9.688;2022-10-10T09:30:17;28.00;61.40
2407;DHT22;37709;53.480;9.688;2022-10-10T09:32:51;28.80;59.80
2407;DHT22;37709;53.480;9.688;2022-10-10T09:35:25;28.40;57.50
2407;DHT22;37709;53.480;9.688;2022-10-10T09:38:19;28.70;58.20
2407;DHT22;37709;53.480;9.688;2022-10-10T09:40:55;27.90;58.20
2407;DHT22;37709;53.480;9.688;2022-10-10T09:43:29;28.20;57.70
2407;DHT22;37709;53.480;9.688;2022-10-10T09:45:57;29.20;57.70
2407;DHT22;37709;53.480;9.688;2022-10-10T09:48:31;29.70;57.50
2407;DHT22;37709;53.480;9.688;2022-10-10T09:51:02;29.70;55.60
2407;DHT22;37709;53.480;9.688;2022-10-10T09:53:55;29.10;55.40
2407;DHT22;37709;53.480;9.688;2022-10-10T09:56:26;28.50;56.70
2407;DHT22;37709;53.480;9.688;2022-10-10T09:58:54;29.70;56.40
2407;DHT22;37709;53.480;9.688;2022-10-10T10:01:24;29.70;54.20
2407;DHT22;37709;53.480;9.688;2022-10-10T10:07:04;29.40;54.50
2407;DHT22;37709;53.480;9.688;2022-10-10T10:09:32;29.60;55.40
2407;DHT22;37709;53.480;9.688;2022-10-10T10:12:00;30.10;53.50
2407;DHT22;37709;53.480;9.688;2022-10-10T10:14:35;31.40;52.90
2407;DHT22;37709;53.480;9.688;2022-10-10T10:17:15;32.20;51.90
2407;DHT22;37709;53.480;9.688;2022-10-10T10:19:46;33.60;51.10
2407;DHT22;37709;53.480;9.688;2022-10-10T10:22:36;34.20;48.70
2407;DHT22;37709;53.480;9.688;2022-10-10T10:25:33;32.60;48.30
2407;DHT22;37709;53.480;9.688;2022-10-10T10:30:40;32.60;49.10
2407;DHT22;37709;53.480;9.688;2022-10-10T10:33:36;33.20;48.80
2407;DHT22;37709;53.480;9.688;2022-10-10T10:38:51;32.70;47.90
2407;DHT22;37709;53.480;9.688;2022-10-10T10:41:43;32.90;47.50
2407;DHT22;37709;53.480;9.688;2022-10-10T10:44:27;32.80;48.20
2407;DHT22;37709;53.480;9.688;2022-10-10T10:47:05;33.00;48.10
2407;DHT22;37709;53.480;9.688;2022-10-10T10:53:09;32.80;48.10
2407;DHT22;37709;53.480;9.688;2022-10-10T10:55:38;33.80;46.40
2407;DHT22;37709;53.480;9.688;2022-10-10T11:07:25;28.70;51.80
2407;DHT22;37709;53.480;9.688;2022-10-10T11:10:10;29.00;52.30
2407;DHT22;37709;53.480;9.688;2022-10-10T11:13:10;31.30;50.70
2407;DHT22;37709;53.480;9.688;2022-10-10T11:15:49;32.60;48.60
2407;DHT22;37709;53.480;9.688;2022-10-10T11:18:52;32.60;47.90
2407;DHT22;37709;53.480;9.688;2022-10-10T11:21:23;33.70;47.10
2407;DHT22;37709;53.480;9.688;2022-10-10T11:23:55;34.20;46.90
2407;DHT22;37709;53.480;9.688;2022-10-10T11:26:29;34.80;46.60
2407;DHT22;37709;53.480;9.688;2022-10-10T11:29:17;34.80;46.30
2407;DHT22;37709;53.480;9.688;2022-10-10T11:32:29;33.20;47.00
2407;DHT22;37709;53.480;9.688;2022-10-10T11:35:20;33.50;46.40
2407;DHT22;37709;53.480;9.688;2022-10-10T11:37:55;31.80;47.40
2407;DHT22;37709;53.480;9.688;2022-10-10T11:40:41;31.20;49.50
2407;DHT22;37709;53.480;9.688;2022-10-10T11:43:24;29.50;51.10
2407;DHT22;37709;53.480;9.688;2022-10-10T11:45:59;31.10;50.20
2407;DHT22;37709;53.480;9.688;2022-10-10T11:48:52;32.60;49.10
2407;DHT22;37709;53.480;9.688;2022-10-10T11:54:12;34.00;46.60
2407;DHT22;37709;53.480;9.688;2022-10-10T11:56:43;33.10;46.20
2407;DHT22;37709;53.480;9.688;2022-10-10T11:59:33;31.60;49.90
2407;DHT22;37709;53.480;9.688;2022-10-10T12:02:47;30.10;50.10
2407;DHT22;37709;53.480;9.688;2022-10-10T12:05:28;27.40;53.80
2407;DHT22;37709;53.480;9.688;2022-10-10T12:08:01;26.90;55.60
2407;DHT22;37709;53.480;9.688;2022-10-10T12:10:40;26.50;57.00
2407;DHT22;37709;53.480;9.688;2022-10-10T12:13:32;27.00;56.90
2407;DHT22;37709;53.480;9.688;2022-10-10T12:16:09;27.30;55.30
2407;DHT22;37709;53.480;9.688;2022-10-10T12:21:28;27.50;55.30
2407;DHT22;37709;53.480;9.688;2022-10-10T12:24:09;27.20;56.40
2407;DHT22;37709;53.480;9.688;2022-10-10T12:32:28;28.50;55.60
2407;DHT22;37709;53.480;9.688;2022-10-10T12:35:30;29.30;53.50
2407;DHT22;37709;53.480;9.688;2022-10-10T12:40:34;28.70;55.30
2407;DHT22;37709;53.480;9.688;2022-10-10T12:43:42;29.00;54.50
2407;DHT22;37709;53.480;9.688;2022-10-10T12:46:21;29.10;54.40
2407;DHT22;37709;53.480;9.688;2022-10-10T12:49:23;27.80;56.00
2407;DHT22;37709;53.480;9.688;2022-10-10T12:54:31;26.80;57.20
2407;DHT22;37709;53.480;9.688;2022-10-10T12:57:08;27.40;57.10
2407;DHT22;37709;53.480;9.688;2022-10-10T12:59:39;27.90;57.40
2407;DHT22;37709;53.480;9.688;2022-10-10T13:02:19;28.40;56.00
2407;DHT22;37709;53.480;9.688;2022-10-10T13:04:52;28.60;55.40
2407;DHT22;37709;53.480;9.688;2022-10-10T13:07:21;27.80;56.60
2407;DHT22;37709;53.480;9.688;2022-10-10T13:09:52;27.40;56.40
2407;DHT22;37709;53.480;9.688;2022-10-10T13:12:30;26.80;58.00
2407;DHT22;37709;53.480;9.688;2022-10-10T13:14:57;27.70;57.10
2407;DHT22;37709;53.480;9.688;2022-10-10T13:19:59;29.40;54.80
2407;DHT22;37709;53.480;9.688;2022-10-10T13:22:29;28.90;54.10
2407;DHT22;37709;53.480;9.688;2022-10-10T13:24:58;29.00;54.30
2407;DHT22;37709;53.480;9.688;2022-10-10T13:27:31;27.60;54.10
2407;DHT22;37709;53.480;9.688;2022-10-10T13:29:59;25.70;57.60
2407;DHT22;37709;53.480;9.688;2022-10-10T13:32:31;24.70;59.30
2407;DHT22;37709;53.480;9.688;2022-10-10T13:35:11;24.70;60.20
2407;DHT22;37709;53.480;9.688;2022-10-10T13:37:40;24.30;59.40
2407;DHT22;37709;53.480;9.688;2022-10-10T13:40:15;23.40;61.90
2407;DHT22;37709;53.480;9.688;2022-10-10T13:42:45;22.50;64.00
2407;DHT22;37709;53.480;9.688;2022-10-10T13:50:30;21.00;67.60
2407;DHT22;37709;53.480;9.688;2022-10-10T13:56:03;20.90;68.40
2407;DHT22;37709;53.480;9.688;2022-10-10T14:04:04;20.80;69.60
2407;DHT22;37709;53.480;9.688;2022-10-10T14:06:33;20.60;69.90
2407;DHT22;37709;53.480;9.688;2022-10-10T14:09:20;20.50;70.50
2407;DHT22;37709;53.480;9.688;2022-10-10T14:11:49;20.30;70.60
2407;DHT22;37709;53.480;9.688;2022-10-10T14:14:26;20.00;70.90
2407;DHT22;37709;53.480;9.688;2022-10-10T14:17:23;19.90;72.60
2407;DHT22;37709;53.480;9.688;2022-10-10T14:19:51;19.70;72.00
2407;DHT22;37709;53.480;9.688;2022-10-10T14:22:20;19.60;72.10
2407;DHT22;37709;53.480;9.688;2022-10-10T14:24:48;19.60;72.60
2407;DHT22;37709;53.480;9.688;2022-10-10T14:29:46;19.40;73.00
2407;DHT22;37709;53.480;9.688;2022-10-10T14:32:15;19.20;73.90
2407;DHT22;37709;53.480;9.688;2022-10-10T14:34:44;19.30;73.90
2407;DHT22;37709;53.480;9.688;2022-10-10T14:37:21;19.10;74.20
2407;DHT22;37709;53.480;9.688;2022-10-10T14:39:49;19.00;74.10
2407;DHT22;37709;53.480;9.688;2022-10-10T14:42:20;18.90;75.30
2407;DHT22;37709;53.480;9.688;2022-10-10T14:44:47;18.90;74.80
2407;DHT22;37709;53.480;9.688;2022-10-10T14:47:23;18.40;75.90
2407;DHT22;37709;53.480;9.688;2022-10-10T14:49:51;18.20;77.10
2407;DHT22;37709;53.480;9.688;2022-10-10T14:52:20;18.20;77.30
2407;DHT22;37709;53.480;9.688;2022-10-10T14:54:48;18.10;77.60
2407;DHT22;37709;53.480;9.688;2022-10-10T14:57:18;18.00;77.50
2407;DHT22;37709;53.480;9.688;2022-10-10T14:59:46;17.80;78.80
2407;DHT22;37709;53.480;9.688;2022-10-10T15:02:18;17.80;79.00
2407;DHT22;37709;53.480;9.688;2022-10-10T15:04:46;17.60;79.80
2407;DHT22;37709;53.480;9.688;2022-10-10T15:07:15;17.50;80.40
2407;DHT22;37709;53.480;9.688;2022-10-10T15:09:44;17.40;80.30
2407;DHT22;37709;53.480;9.688;2022-10-10T15:12:33;17.20;80.70
2407;DHT22;37709;53.480;9.688;2022-10-10T15:15:03;17.10;81.40
2407;DHT22;37709;53.480;9.688;2022-10-10T15:17:31;17.00;82.00
2407;DHT22;37709;53.480;9.688;2022-10-10T15:20:05;16.90;82.70
2407;DHT22;37709;53.480;9.688;2022-10-10T15:22:34;16.80;82.60
2407;DHT22;37709;53.480;9.688;2022-10-10T15:25:02;16.70;82.60
2407;DHT22;37709;53.480;9.688;2022-10-10T15:27:29;16.60;82.10
2407;DHT22;37709;53.480;9.688;2022-10-10T15:29:59;16.50;82.50
2407;DHT22;37709;53.480;9.688;2022-10-10T15:32:27;16.40;82.30
2407;DHT22;37709;53.480;9.688;2022-10-10T15:34:54;16.40;82.10
2407;DHT22;37709;53.480;9.688;2022-10-10T15:37:24;16.30;82.70
2407;DHT22;37709;53.480;9.688;2022-10-10T15:39:52;16.20;83.00
2407;DHT22;37709;53.480;9.688;2022-10-10T15:42:20;16.20;83.30
2407;DHT22;37709;53.480;9.688;2022-10-10T15:44:49;16.10;83.50
2407;DHT22;37709;53.480;9.688;2022-10-10T15:47:18;16.10;84.50
2407;DHT22;37709;53.480;9.688;2022-10-10T15:49:45;15.80;88.60
2407;DHT22;37709;53.480;9.688;2022-10-10T15:52:14;15.60;91.10
2407;DHT22;37709;53.480;9.688;2022-10-10T15:54:41;15.30;93.10
2407;DHT22;37709;53.480;9.688;2022-10-10T15:57:09;15.20;93.60
2407;DHT22;37709;53.480;9.688;2022-10-10T15:59:41;15.10;97.20
2407;DHT22;37709;53.480;9.688;2022-10-10T16:02:11;14.80;99.90
2407;DHT22;37709;53.480;9.688;2022-10-10T16:04:38;14.60;99.90
2407;DHT22;37709;53.480;9.688;2022-10-10T16:07:06;14.40;99.90
2407;DHT22;37709;53.480;9.688;2022-10-10T16:09:54;14.20;99.90
2407;DHT22;37709;53.480;9.688;2022-10-10T16:12:21;14.00;99.90
2407;DHT22;37709;53.480;9.688;2022-10-10T16:14:49;13.80;99.90
2407;DHT22;37709;53.480;9.688;2022-10-10T16:17:17;13.60;99.90
2407;DHT22;37709;53.480;9.688;2022-10-10T16:19:49;13.50;99.90
2407;DHT22;37709;53.480;9.688;2022-10-10T16:22:18;13.20;99.90
2407;DHT22;37709;53.480;9.688;2022-10-10T16:24:46;13.00;99.90
2407;DHT22;37709;53.480;9.688;2022-10-10T16:27:36;12.90;99.90
2407;DHT22;37709;53.480;9.688;2022-10-10T16:30:04;12.80;99.90
2407;DHT22;37709;53.480;9.688;2022-10-10T16:32:32;12.70;99.90
2407;DHT22;37709;53.480;9.688;2022-10-10T16:35:07;12.60;99.90
2407;DHT22;37709;53.480;9.688;2022-10-10T16:37:35;12.60;99.90
2407;DHT22;37709;53.480;9.688;2022-10-10T16:40:05;12.60;99.90
2407;DHT22;37709;53.480;9.688;2022-10-10T16:42:33;12.50;99.90
2407;DHT22;37709;53.480;9.688;2022-10-10T16:45:01;12.40;99.90
2407;DHT22;37709;53.480;9.688;2022-10-10T16:47:29;12.30;99.90
2407;DHT22;37709;53.480;9.688;2022-10-10T16:49:57;12.30;99.90
2407;DHT22;37709;53.480;9.688;2022-10-10T16:52:25;12.30;99.90
2407;DHT22;37709;53.480;9.688;2022-10-10T16:54:57;12.30;99.90
2407;DHT22;37709;53.480;9.688;2022-10-10T16:57:24;12.30;99.90
2407;DHT22;37709;53.480;9.688;2022-10-10T16:59:52;12.20;99.90
2407;DHT22;37709;53.480;9.688;2022-10-10T17:02:19;12.20;99.90
2407;DHT22;37709;53.480;9.688;2022-10-10T17:04:50;12.20;99.90
2407;DHT22;37709;53.480;9.688;2022-10-10T17:07:25;12.10;99.90
2407;DHT22;37709;53.480;9.688;2022-10-10T17:09:52;12.10;99.90
2407;DHT22;37709;53.480;9.688;2022-10-10T17:12:20;12.10;99.90
2407;DHT22;37709;53.480;9.688;2022-10-10T17:14:49;12.10;99.90
2407;DHT22;37709;53.480;9.688;2022-10-10T17:17:18;12.10;99.90
2407;DHT22;37709;53.480;9.688;2022-10-10T17:19:45;11.90;99.90
2407;DHT22;37709;53.480;9.688;2022-10-10T17:22:15;11.70;99.90
2407;DHT22;37709;53.480;9.688;2022-10-10T17:25:09;11.60;99.90
2407;DHT22;37709;53.480;9.688;2022-10-10T17:27:38;11.40;99.90
2407;DHT22;37709;53.480;9.688;2022-10-10T17:30:09;11.30;99.90
2407;DHT22;37709;53.480;9.688;2022-10-10T17:32:40;11.20;99.90
2407;DHT22;37709;53.480;9.688;2022-10-10T17:35:09;11.20;99.90
2407;DHT22;37709;53.480;9.688;2022-10-10T17:37:37;11.10;99.90
2407;DHT22;37709;53.480;9.688;2022-10-10T17:40:05;11.10;99.90
2407;DHT22;37709;53.480;9.688;2022-10-10T17:42:36;11.00;99.90
2407;DHT22;37709;53.480;9.688;2022-10-10T17:45:04;11.00;99.90
2407;DHT22;37709;53.480;9.688;2022-10-10T17:47:32;11.00;99.90